Time;durP1;ratioP1;P1;durP2;ratioP2;P2;SDS_P1;SDS_P2;PMS_P1;PMS_P2;Temp;Humidity;BMP_temperature;BMP_pressure;BME280_temperature;BME280_humidity;BME280_pressure;Samples;Min_cycle;Max_cycle;Signal;HPM_P1;HPM_P2
2021/08/09 00:01:42;;;;;;;6.15;3.42;;;24.00;53.70;;;;;;4364396;32;20190;-71
2021/08/09 00:04:08;;;;;;;5.22;3.05;;;24.00;53.00;;;;;;4378472;32;20097;-72
2021/08/09 00:06:35;;;;;;;5.18;3.60;;;24.00;52.50;;;;;;4352000;32;20074;-72
2021/08/09 00:09:02;;;;;;;7.30;4.20;;;24.00;52.60;;;;;;4364112;32;20074;-71
2021/08/09 00:11:29;;;;;;;5.75;3.85;;;23.90;52.80;;;;;;4364145;32;20450;-71
2021/08/09 00:13:55;;;;;;;5.28;3.40;;;24.00;52.70;;;;;;4351315;32;20543;-71
2021/08/09 00:16:21;;;;;;;9.65;3.92;;;24.00;52.90;;;;;;4339942;32;20077;-72
2021/08/09 00:18:49;;;;;;;5.32;3.60;;;23.90;53.10;;;;;;4364101;32;20061;-71
2021/08/09 00:21:16;;;;;;;4.75;3.75;;;23.80;53.40;;;;;;4348629;32;20082;-71
2021/08/09 00:23:43;;;;;;;7.57;3.53;;;23.80;53.60;;;;;;4349304;32;20512;-72
2021/08/09 00:26:09;;;;;;;4.62;3.70;;;23.80;53.70;;;;;;4336634;32;20146;-72
2021/08/09 00:28:36;;;;;;;5.75;3.90;;;23.80;53.80;;;;;;4336820;32;20242;-72
2021/08/09 00:31:02;;;;;;;7.45;3.55;;;23.70;53.60;;;;;;4325030;32;20075;-72
2021/08/09 00:33:28;;;;;;;5.15;3.78;;;23.70;53.80;;;;;;4336451;32;20074;-71
2021/08/09 00:35:55;;;;;;;4.05;3.25;;;23.70;54.00;;;;;;4348845;32;20090;-72
2021/08/09 00:38:21;;;;;;;7.05;3.40;;;23.70;53.90;;;;;;4336656;32;20082;-71
2021/08/09 00:40:47;;;;;;;6.12;3.72;;;23.60;54.40;;;;;;4336063;32;20450;-71
2021/08/09 00:43:13;;;;;;;6.75;3.37;;;23.60;54.20;;;;;;4348496;32;20163;-71
2021/08/09 00:45:39;;;;;;;6.00;3.12;;;23.60;54.30;;;;;;4336142;32;20166;-71
2021/08/09 00:48:06;;;;;;;7.70;3.25;;;23.70;53.00;;;;;;4336578;32;20096;-72
2021/08/09 00:50:32;;;;;;;4.90;3.05;;;23.70;53.50;;;;;;4324145;32;20090;-71
2021/08/09 00:52:59;;;;;;;4.50;3.17;;;23.60;53.00;;;;;;4336178;32;20087;-72
2021/08/09 00:55:25;;;;;;;4.62;3.20;;;23.60;52.90;;;;;;4336205;32;20679;-72
2021/08/09 00:57:51;;;;;;;5.55;3.22;;;23.50;53.90;;;;;;4324591;32;20185;-72
2021/08/09 01:00:18;;;;;;;5.05;3.40;;;23.60;53.00;;;;;;4323972;32;20085;-71
2021/08/09 01:02:44;;;;;;;5.62;3.60;;;23.40;53.50;;;;;;4350379;32;20070;-71
2021/08/09 01:05:11;;;;;;;3.95;3.20;;;23.40;53.60;;;;;;4343250;32;20071;-71
2021/08/09 01:08:22;;;;;;;4.85;3.40;;;23.40;53.80;;;;;;4354064;32;20153;-72
2021/08/09 01:11:08;;;;;;;4.32;3.42;;;23.30;54.30;;;;;;4348312;32;20074;-72
2021/08/09 01:13:55;;;;;;;6.05;3.42;;;23.40;53.40;;;;;;4325848;32;20086;-72
2021/08/09 01:16:37;;;;;;;4.78;3.53;;;23.40;52.90;;;;;;4362114;32;20078;-72
2021/08/09 01:19:36;;;;;;;4.40;3.20;;;23.40;52.70;;;;;;4337553;32;20070;-72
2021/08/09 01:22:35;;;;;;;9.00;4.47;;;23.40;52.80;;;;;;4348528;32;20098;-72
2021/08/09 01:25:33;;;;;;;7.53;4.55;;;23.20;55.30;;;;;;4334382;32;20055;-72
2021/08/09 01:27:59;;;;;;;7.43;4.80;;;23.00;56.20;;;;;;4335241;32;20476;-71
2021/08/09 01:30:25;;;;;;;10.98;5.45;;;22.90;57.30;;;;;;4335433;32;20074;-72
2021/08/09 01:32:53;;;;;;;10.80;6.95;;;22.80;58.00;;;;;;4336107;32;20215;-72
2021/08/09 01:35:20;;;;;;;10.93;6.78;;;22.50;61.00;;;;;;4348335;32;20457;-72
2021/08/09 01:37:51;;;;;;;14.77;6.82;;;22.40;62.60;;;;;;4323606;32;20105;-72
2021/08/09 01:40:18;;;;;;;13.32;7.55;;;22.40;63.30;;;;;;4348260;32;20068;-72
2021/08/09 01:42:45;;;;;;;15.57;8.77;;;22.50;61.60;;;;;;4347646;32;20071;-71
2021/08/09 01:45:15;;;;;;;9.88;7.22;;;22.50;63.50;;;;;;4324022;32;20170;-71
2021/08/09 01:47:42;;;;;;;15.75;8.05;;;22.50;64.80;;;;;;4335993;32;20605;-72
2021/08/09 01:50:09;;;;;;;13.43;7.18;;;22.40;65.90;;;;;;4348211;32;20073;-71
2021/08/09 01:52:35;;;;;;;13.80;7.43;;;22.50;66.50;;;;;;4335690;32;20074;-72
2021/08/09 01:55:02;;;;;;;16.87;7.62;;;22.60;65.40;;;;;;4347824;32;20078;-73
2021/08/09 01:57:28;;;;;;;10.48;7.15;;;22.80;65.10;;;;;;4347784;32;20522;-71
2021/08/09 01:59:55;;;;;;;15.00;7.50;;;22.80;64.70;;;;;;4335617;32;20523;-70
2021/08/09 02:02:28;;;;;;;11.07;6.80;;;22.80;66.10;;;;;;4347797;32;20078;-72
2021/08/09 02:04:54;;;;;;;9.43;6.32;;;22.80;65.30;;;;;;4335905;32;20101;-72
2021/08/09 02:07:21;;;;;;;11.63;6.97;;;22.90;64.00;;;;;;4362054;32;20082;-71
2021/08/09 02:09:47;;;;;;;8.13;6.15;;;22.90;63.50;;;;;;4335647;32;20086;-72
2021/08/09 02:12:13;;;;;;;13.55;6.18;;;22.90;61.70;;;;;;4335418;32;20062;-71
2021/08/09 02:14:58;;;;;;;9.85;5.70;;;23.00;60.40;;;;;;4323203;32;20090;-72
2021/08/09 02:17:54;;;;;;;9.65;5.65;;;23.10;59.20;;;;;;4335725;32;20167;-72
2021/08/09 02:20:31;;;;;;;8.52;6.07;;;23.20;59.50;;;;;;4351293;32;20172;-72
2021/08/09 02:23:01;;;;;;;10.30;5.72;;;23.20;59.80;;;;;;4347882;32;20104;-72
2021/08/09 02:25:28;;;;;;;8.15;4.68;;;23.40;57.00;;;;;;4335649;32;20504;-71
2021/08/09 02:27:58;;;;;;;8.55;4.50;;;23.50;57.80;;;;;;4335303;32;20168;-72
2021/08/09 02:30:24;;;;;;;6.45;4.03;;;23.70;55.40;;;;;;4348084;32;20165;-71
2021/08/09 02:32:51;;;;;;;6.25;3.55;;;23.80;52.00;;;;;;4335699;32;20161;-71
2021/08/09 02:35:19;;;;;;;7.25;3.45;;;23.90;52.10;;;;;;4335357;32;20077;-71
2021/08/09 02:37:45;;;;;;;4.50;3.22;;;24.00;50.90;;;;;;4335407;32;20077;-72
2021/08/09 02:40:12;;;;;;;5.60;3.20;;;24.00;48.60;;;;;;4347543;32;20066;-71
2021/08/09 02:42:39;;;;;;;4.90;3.35;;;24.00;48.70;;;;;;4350203;32;20070;-71
2021/08/09 02:45:06;;;;;;;5.15;2.87;;;23.90;48.20;;;;;;4326178;32;20176;-72
2021/08/09 02:47:37;;;;;;;4.43;2.80;;;23.90;47.80;;;;;;4313907;32;20086;-72
2021/08/09 02:50:08;;;;;;;4.80;2.83;;;24.00;47.50;;;;;;4350904;32;20490;-72
2021/08/09 02:52:34;;;;;;;5.20;3.12;;;24.10;46.90;;;;;;4338608;32;20163;-72
2021/08/09 02:55:01;;;;;;;4.05;3.00;;;24.20;46.60;;;;;;4338159;32;20078;-72
2021/08/09 02:57:28;;;;;;;4.10;2.92;;;24.00;47.30;;;;;;4326013;32;20259;-71
2021/08/09 02:59:56;;;;;;;5.05;3.28;;;24.00;46.40;;;;;;4338152;32;20449;-72
2021/08/09 03:02:22;;;;;;;3.72;2.78;;;24.00;46.30;;;;;;4337742;32;20067;-72
2021/08/09 03:04:49;;;;;;;6.07;2.90;;;24.00;46.60;;;;;;4337907;32;20268;-72
2021/08/09 03:07:15;;;;;;;4.53;3.03;;;24.10;46.30;;;;;;4338115;32;20086;-71
2021/08/09 03:09:41;;;;;;;5.78;2.78;;;24.10;47.40;;;;;;4350476;32;20496;-72
2021/08/09 03:12:07;;;;;;;4.30;3.30;;;24.40;47.20;;;;;;4338369;32;20112;-72
2021/08/09 03:14:33;;;;;;;5.82;3.35;;;24.50;46.90;;;;;;4337886;32;20083;-73
2021/08/09 03:17:02;;;;;;;4.28;2.67;;;24.60;45.40;;;;;;4350067;32;20457;-72
2021/08/09 03:19:28;;;;;;;4.75;3.00;;;24.50;45.20;;;;;;4338955;32;20086;-71
2021/08/09 03:21:59;;;;;;;4.10;3.00;;;24.30;46.20;;;;;;4353209;32;20085;-71
2021/08/09 03:24:27;;;;;;;4.60;3.30;;;24.40;45.90;;;;;;4353001;32;20163;-71
2021/08/09 03:26:53;;;;;;;5.90;3.78;;;24.30;45.80;;;;;;4364940;32;20186;-71
2021/08/09 03:29:20;;;;;;;5.05;3.22;;;24.40;45.30;;;;;;4364785;32;20063;-72
2021/08/09 03:31:46;;;;;;;5.87;3.65;;;24.60;45.20;;;;;;4364510;32;20093;-71
2021/08/09 03:34:12;;;;;;;4.55;3.30;;;24.70;44.60;;;;;;4352538;32;20243;-71
2021/08/09 03:36:42;;;;;;;5.32;2.95;;;24.90;43.70;;;;;;4378746;32;20074;-72
2021/08/09 03:39:08;;;;;;;5.75;3.10;;;24.80;42.50;;;;;;4352462;32;20092;-72
2021/08/09 03:41:36;;;;;;;4.07;3.20;;;24.90;42.90;;;;;;4352126;32;20155;-71
2021/08/09 03:44:02;;;;;;;4.80;3.15;;;25.20;42.40;;;;;;4351655;32;20468;-71
2021/08/09 03:46:28;;;;;;;6.35;3.70;;;25.30;41.90;;;;;;4351898;32;20074;-71
2021/08/09 03:48:55;;;;;;;4.32;3.10;;;25.60;41.50;;;;;;4352375;32;20264;-71
2021/08/09 03:51:21;;;;;;;4.85;2.90;;;25.60;40.90;;;;;;4364979;32;20074;-71
2021/08/09 03:53:47;;;;;;;5.47;3.50;;;25.80;40.00;;;;;;4351561;32;20532;-71
2021/08/09 03:56:13;;;;;;;4.20;3.20;;;25.90;40.00;;;;;;4364167;32;20097;-72
2021/08/09 03:58:39;;;;;;;4.85;3.30;;;26.00;38.90;;;;;;4351793;32;20097;-71
2021/08/09 04:01:07;;;;;;;5.70;3.75;;;26.10;39.60;;;;;;4363953;32;20088;-71
2021/08/09 04:03:35;;;;;;;4.95;3.10;;;26.00;39.70;;;;;;4358891;32;20082;-71
2021/08/09 04:06:01;;;;;;;5.25;3.20;;;25.90;38.80;;;;;;4358948;32;20575;-72
2021/08/09 04:08:27;;;;;;;5.80;3.10;;;26.00;38.90;;;;;;4353949;32;20078;-72
2021/08/09 04:10:53;;;;;;;5.20;3.20;;;25.90;38.90;;;;;;4351751;32;20144;-72
2021/08/09 04:13:20;;;;;;;4.45;3.10;;;26.00;39.10;;;;;;4351828;32;20081;-71
2021/08/09 04:15:46;;;;;;;5.62;3.53;;;25.90;39.50;;;;;;4377873;32;20505;-71
2021/08/09 04:18:12;;;;;;;5.10;3.17;;;26.00;39.50;;;;;;4352075;32;20077;-72
2021/08/09 04:20:38;;;;;;;7.75;3.10;;;26.20;39.00;;;;;;4363914;32;20465;-72
2021/08/09 04:23:05;;;;;;;4.15;2.80;;;26.30;39.00;;;;;;4351866;32;20524;-73
2021/08/09 04:25:31;;;;;;;5.60;3.15;;;26.50;38.60;;;;;;4351317;32;20101;-72
2021/08/09 04:27:57;;;;;;;4.25;3.28;;;26.30;39.00;;;;;;4377415;32;20074;-71
2021/08/09 04:30:23;;;;;;;5.10;3.28;;;26.30;38.40;;;;;;4363644;32;20138;-71
2021/08/09 04:32:50;;;;;;;4.30;3.15;;;26.50;38.10;;;;;;4351447;32;20508;-71
2021/08/09 04:35:16;;;;;;;5.07;3.20;;;26.50;38.60;;;;;;4351373;32;20090;-71
2021/08/09 04:37:43;;;;;;;3.22;2.80;;;26.80;38.20;;;;;;4363698;32;20081;-71
2021/08/09 04:40:10;;;;;;;3.70;2.78;;;26.70;37.20;;;;;;4363657;32;20073;-73
2021/08/09 04:42:37;;;;;;;3.95;2.83;;;26.90;36.30;;;;;;4363791;32;20094;-72
2021/08/09 04:45:04;;;;;;;4.72;3.15;;;26.90;36.40;;;;;;4339271;32;20085;-72
2021/08/09 04:47:30;;;;;;;4.22;2.80;;;26.90;36.80;;;;;;4351085;32;20194;-73
2021/08/09 04:49:56;;;;;;;4.97;2.45;;;27.20;35.50;;;;;;4363393;32;20464;-72
2021/08/09 04:52:23;;;;;;;4.20;2.55;;;27.20;34.80;;;;;;4351252;32;20097;-71
2021/08/09 04:54:49;;;;;;;4.30;2.70;;;27.00;36.00;;;;;;4363212;32;20161;-73
2021/08/09 04:57:15;;;;;;;3.75;2.70;;;27.10;34.40;;;;;;4350820;32;20104;-72
2021/08/09 04:59:41;;;;;;;4.25;2.90;;;27.30;34.80;;;;;;4351427;32;20093;-73
2021/08/09 05:02:07;;;;;;;3.25;2.40;;;27.40;34.40;;;;;;4351002;32;20140;-73
2021/08/09 05:04:33;;;;;;;6.75;3.40;;;27.70;34.10;;;;;;4338302;32;20098;-73
2021/08/09 05:07:03;;;;;;;3.37;2.35;;;28.10;33.30;;;;;;4339004;32;20090;-72
2021/08/09 05:09:29;;;;;;;3.35;2.72;;;28.50;32.10;;;;;;4339242;32;20157;-72
2021/08/09 05:11:55;;;;;;;4.53;3.00;;;28.70;31.60;;;;;;4351256;32;20155;-73
2021/08/09 05:14:21;;;;;;;4.72;2.72;;;29.00;30.70;;;;;;4363399;32;20082;-72
2021/08/09 05:16:48;;;;;;;3.67;2.60;;;28.70;31.70;;;;;;4363195;32;20066;-73
2021/08/09 05:19:14;;;;;;;3.87;2.55;;;28.70;31.50;;;;;;4363110;32;20455;-72
2021/08/09 05:21:40;;;;;;;3.33;2.55;;;28.60;30.40;;;;;;4348362;32;20081;-73
2021/08/09 05:24:07;;;;;;;3.95;3.00;;;28.80;30.60;;;;;;4361764;32;20076;-72
2021/08/09 05:26:33;;;;;;;4.12;2.60;;;29.00;30.70;;;;;;4348455;32;20075;-72
2021/08/09 05:28:59;;;;;;;4.68;2.62;;;29.20;30.30;;;;;;4348468;32;20080;-72
2021/08/09 05:31:28;;;;;;;5.05;2.50;;;29.60;29.90;;;;;;4336531;32;20163;-72
2021/08/09 05:33:58;;;;;;;3.72;2.22;;;29.60;29.60;;;;;;4336461;32;20517;-73
2021/08/09 05:36:25;;;;;;;3.35;2.33;;;29.20;29.70;;;;;;4336263;32;20078;-72
2021/08/09 05:38:51;;;;;;;2.85;2.25;;;28.80;29.90;;;;;;4347970;32;20154;-70
2021/08/09 05:41:17;;;;;;;3.58;2.30;;;29.00;29.60;;;;;;4335344;32;20845;-72
2021/08/09 05:43:44;;;;;;;7.60;2.62;;;29.40;28.60;;;;;;4347893;32;20070;-72
2021/08/09 05:46:10;;;;;;;3.45;2.22;;;29.20;29.30;;;;;;4335849;32;20102;-73
2021/08/09 05:48:36;;;;;;;4.25;2.20;;;29.50;29.60;;;;;;4335341;32;20508;-72
2021/08/09 05:51:02;;;;;;;3.95;2.33;;;29.20;29.40;;;;;;4335440;32;20162;-72
2021/08/09 05:53:30;;;;;;;2.53;2.22;;;29.50;28.80;;;;;;4323268;32;20498;-72
2021/08/09 05:55:56;;;;;;;2.87;2.33;;;29.40;27.90;;;;;;4348315;32;20102;-71
2021/08/09 05:58:22;;;;;;;3.37;2.47;;;29.60;28.30;;;;;;4347752;32;20078;-72
2021/08/09 06:00:48;;;;;;;4.07;2.42;;;29.50;28.10;;;;;;4347648;32;20458;-73
2021/08/09 06:03:18;;;;;;;3.45;2.45;;;30.30;27.70;;;;;;4335744;32;20576;-72
2021/08/09 06:05:45;;;;;;;3.40;2.25;;;30.10;27.40;;;;;;4335530;32;20175;-73
2021/08/09 06:08:12;;;;;;;3.60;2.53;;;30.30;27.60;;;;;;4347821;32;20067;-72
2021/08/09 06:10:38;;;;;;;3.83;2.60;;;29.70;27.80;;;;;;4347584;32;20155;-73
2021/08/09 06:13:05;;;;;;;3.17;2.30;;;29.70;28.10;;;;;;4335426;32;20590;-72
2021/08/09 06:15:31;;;;;;;3.20;2.67;;;29.80;27.70;;;;;;4335516;32;20154;-72
2021/08/09 06:17:57;;;;;;;4.00;2.42;;;30.20;27.80;;;;;;4347853;32;20509;-72
2021/08/09 06:20:24;;;;;;;4.53;2.53;;;30.20;27.50;;;;;;4352324;32;20118;-72
2021/08/09 06:22:50;;;;;;;4.62;2.10;;;30.20;27.20;;;;;;4336070;32;20106;-73
2021/08/09 06:25:16;;;;;;;2.55;2.10;;;30.10;27.20;;;;;;4349399;32;20573;-71
2021/08/09 06:27:44;;;;;;;3.58;1.90;;;29.60;26.70;;;;;;4325852;32;20168;-72
2021/08/09 06:30:11;;;;;;;4.57;2.10;;;29.60;28.00;;;;;;4342694;33;20079;-72
2021/08/09 06:32:37;;;;;;;3.10;2.28;;;29.30;28.30;;;;;;4337330;33;20079;-72
2021/08/09 06:35:05;;;;;;;3.85;2.10;;;29.50;28.20;;;;;;4302483;32;20105;-73
2021/08/09 06:37:31;;;;;;;2.35;2.10;;;29.90;28.20;;;;;;4335632;32;21240;-79
2021/08/09 06:39:58;;;;;;;3.80;2.25;;;29.80;27.50;;;;;;4348004;32;20093;-78
2021/08/09 06:42:24;;;;;;;2.42;1.98;;;29.80;28.00;;;;;;4347543;32;20090;-79
2021/08/09 06:44:51;;;;;;;3.17;1.85;;;29.50;27.40;;;;;;4335044;32;20519;-76
2021/08/09 06:47:17;;;;;;;5.43;2.10;;;29.60;27.30;;;;;;4331861;33;20067;-77
2021/08/09 06:49:43;;;;;;;3.03;2.00;;;29.80;27.60;;;;;;4333013;32;20110;-77
2021/08/09 06:52:10;;;;;;;2.83;2.00;;;29.50;28.00;;;;;;4323404;32;20520;-79
2021/08/09 06:54:36;;;;;;;4.03;2.60;;;29.70;27.90;;;;;;4334556;32;20536;-75
2021/08/09 06:57:02;;;;;;;4.97;2.47;;;29.90;28.00;;;;;;4342922;33;20511;-70
2021/08/09 06:59:29;;;;;;;4.53;2.28;;;30.20;28.20;;;;;;4326856;32;20481;-77
2021/08/09 07:01:55;;;;;;;6.22;2.40;;;29.50;28.60;;;;;;4325671;32;20089;-76
2021/08/09 07:04:21;;;;;;;3.72;2.42;;;29.80;28.00;;;;;;4341566;32;20063;-73
2021/08/09 07:06:53;;;;;;;4.05;2.25;;;29.90;28.20;;;;;;4334026;32;20106;-76
2021/08/09 07:09:21;;;;;;;3.83;2.58;;;30.10;28.00;;;;;;4318950;32;20094;-75
2021/08/09 07:11:47;;;;;;;4.40;2.65;;;29.50;29.20;;;;;;4357501;32;20067;-75
2021/08/09 07:14:18;;;;;;;4.15;2.37;;;29.30;29.70;;;;;;4346665;32;20101;-74
2021/08/09 07:16:44;;;;;;;6.20;2.67;;;29.90;29.70;;;;;;4346202;32;20075;-74
2021/08/09 07:19:11;;;;;;;3.85;2.53;;;29.60;29.70;;;;;;4333899;32;20083;-75
2021/08/09 07:21:38;;;;;;;5.20;2.60;;;30.10;29.20;;;;;;4359368;32;20075;-76
2021/08/09 07:24:04;;;;;;;5.62;2.70;;;30.00;29.30;;;;;;4324626;32;20085;-71
2021/08/09 07:26:32;;;;;;;4.35;2.58;;;30.20;29.10;;;;;;4325282;32;20082;-75
2021/08/09 07:28:59;;;;;;;3.50;2.67;;;30.10;29.20;;;;;;4359535;32;20533;-72
2021/08/09 07:31:25;;;;;;;3.95;2.50;;;30.20;29.10;;;;;;4351878;32;20066;-73
2021/08/09 07:33:52;;;;;;;5.07;2.20;;;30.10;28.80;;;;;;4349171;32;20106;-71
2021/08/09 07:36:18;;;;;;;3.22;2.55;;;30.10;29.10;;;;;;4340448;32;20086;-74
2021/08/09 07:38:44;;;;;;;3.80;2.58;;;29.90;28.80;;;;;;4356598;32;20110;-75
2021/08/09 07:41:10;;;;;;;3.90;2.97;;;30.00;29.10;;;;;;4326170;32;20099;-84
2021/08/09 07:43:37;;;;;;;4.90;2.62;;;30.00;29.10;;;;;;4346029;32;20082;-79
2021/08/09 07:46:04;;;;;;;4.37;2.80;;;30.40;28.10;;;;;;4337031;32;20093;-82
2021/08/09 07:48:31;;;;;;;6.40;2.70;;;30.30;28.70;;;;;;4348223;32;20132;-78
2021/08/09 07:50:57;;;;;;;3.42;2.70;;;29.80;28.90;;;;;;4345104;32;20089;-78
2021/08/09 07:53:23;;;;;;;5.93;2.70;;;30.00;28.90;;;;;;4357170;32;20162;-71
2021/08/09 07:55:50;;;;;;;4.95;3.20;;;30.10;28.80;;;;;;4346379;32;20083;-72
2021/08/09 07:58:16;;;;;;;4.95;2.40;;;30.30;28.60;;;;;;4354531;32;20488;-70
2021/08/09 08:00:43;;;;;;;5.53;2.85;;;30.40;28.90;;;;;;4299889;32;20520;-73
2021/08/09 08:03:09;;;;;;;4.37;3.08;;;30.40;28.80;;;;;;4324189;32;20462;-70
2021/08/09 08:05:35;;;;;;;4.47;2.92;;;30.80;28.70;;;;;;4345894;32;20081;-72
2021/08/09 08:08:02;;;;;;;4.28;3.00;;;30.70;28.20;;;;;;4329351;32;20528;-71
2021/08/09 08:10:29;;;;;;;3.72;2.95;;;31.30;27.40;;;;;;4345735;32;20071;-75
2021/08/09 08:12:55;;;;;;;4.00;2.65;;;30.70;27.90;;;;;;4334983;32;20479;-74
2021/08/09 08:15:21;;;;;;;3.58;2.75;;;30.60;28.30;;;;;;4356854;32;20748;-74
2021/08/09 08:17:48;;;;;;;3.05;2.75;;;30.90;28.00;;;;;;4340657;32;20517;-72
2021/08/09 08:20:14;;;;;;;4.82;2.97;;;31.10;28.30;;;;;;4337008;32;20073;-71
2021/08/09 08:22:40;;;;;;;3.42;2.87;;;30.90;28.10;;;;;;4335665;32;20066;-72
2021/08/09 08:25:07;;;;;;;4.43;2.90;;;30.90;28.30;;;;;;4348507;32;20422;-73
2021/08/09 08:27:34;;;;;;;5.25;2.90;;;31.00;28.30;;;;;;4336019;32;20076;-74
2021/08/09 08:30:00;;;;;;;3.30;2.90;;;31.40;27.30;;;;;;4343118;32;20062;-73
2021/08/09 08:32:26;;;;;;;5.30;2.60;;;31.40;27.20;;;;;;4349720;32;20538;-74
2021/08/09 08:34:53;;;;;;;4.37;2.83;;;31.20;28.10;;;;;;4343492;32;20062;-73
2021/08/09 08:37:19;;;;;;;4.70;2.90;;;31.80;27.60;;;;;;4349790;32;20096;-73
2021/08/09 08:39:46;;;;;;;4.72;2.75;;;31.80;27.00;;;;;;4337468;32;20082;-71
2021/08/09 08:42:14;;;;;;;5.10;2.75;;;31.80;27.20;;;;;;4347780;32;20626;-69
2021/08/09 08:44:40;;;;;;;4.20;3.05;;;31.60;27.00;;;;;;4303930;32;20539;-71
2021/08/09 08:47:07;;;;;;;4.15;3.00;;;31.70;27.40;;;;;;4336793;32;20125;-72
2021/08/09 08:49:34;;;;;;;3.85;3.08;;;31.50;26.70;;;;;;4318432;32;20090;-74
2021/08/09 08:52:01;;;;;;;4.60;3.28;;;30.90;27.50;;;;;;4325809;32;20093;-73
2021/08/09 08:54:27;;;;;;;4.18;3.05;;;31.00;27.80;;;;;;4335779;32;20165;-72
2021/08/09 08:56:53;;;;;;;5.57;3.40;;;31.80;27.20;;;;;;4356783;32;20091;-74
2021/08/09 08:59:20;;;;;;;5.43;2.95;;;32.60;26.30;;;;;;4360914;32;20063;-73
2021/08/09 09:01:48;;;;;;;5.15;3.10;;;31.80;26.90;;;;;;4340744;32;20522;-77
2021/08/09 09:04:32;;;;;;;5.40;3.10;;;32.00;26.20;;;;;;4341180;32;20069;-72
2021/08/09 09:07:06;;;;;;;4.55;3.30;;;31.80;27.10;;;;;;4348985;32;20092;-73
2021/08/09 09:09:36;;;;;;;5.18;3.30;;;31.30;28.00;;;;;;4339831;32;20503;-73
2021/08/09 09:12:14;;;;;;;7.65;3.20;;;31.50;27.20;;;;;;4346893;32;20489;-75
2021/08/09 09:14:40;;;;;;;4.40;3.28;;;31.80;27.10;;;;;;4323207;32;20515;-72
2021/08/09 09:17:06;;;;;;;5.47;3.20;;;31.90;27.10;;;;;;4347424;32;20170;-74
2021/08/09 09:19:38;;;;;;;6.00;2.95;;;31.90;26.90;;;;;;4347434;32;20074;-77
2021/08/09 09:22:21;;;;;;;4.32;3.30;;;32.30;27.00;;;;;;4345676;32;20077;-71
2021/08/09 09:24:51;;;;;;;5.03;3.62;;;32.40;26.10;;;;;;4335599;32;20625;-77
2021/08/09 09:27:28;;;;;;;4.60;3.50;;;31.80;26.70;;;;;;4320899;32;20062;-71
2021/08/09 09:29:54;;;;;;;5.20;3.70;;;32.00;27.00;;;;;;4335593;32;20077;-72
2021/08/09 09:32:23;;;;;;;5.87;3.65;;;31.60;27.30;;;;;;4346082;32;20102;-76
2021/08/09 09:34:56;;;;;;;7.00;4.43;;;31.80;27.20;;;;;;4329071;32;20094;-73
2021/08/09 09:37:31;;;;;;;5.32;3.97;;;31.50;27.00;;;;;;4341063;32;20590;-77
2021/08/09 09:40:12;;;;;;;7.57;3.90;;;31.20;27.70;;;;;;4330061;32;20075;-77
2021/08/09 09:42:40;;;;;;;5.10;3.80;;;31.30;27.70;;;;;;4323831;32;20078;-82
2021/08/09 09:45:27;;;;;;;4.35;3.45;;;31.50;27.20;;;;;;4336810;32;20464;-78
2021/08/09 09:48:10;;;;;;;4.93;3.22;;;32.00;26.60;;;;;;4343968;32;20063;-80
2021/08/09 09:50:41;;;;;;;5.60;3.30;;;32.10;27.20;;;;;;4334155;32;20090;-77
2021/08/09 09:53:28;;;;;;;5.15;3.20;;;32.20;27.40;;;;;;4336503;32;20110;-82
2021/08/09 09:55:55;;;;;;;4.78;3.10;;;32.40;26.90;;;;;;4330789;32;20453;-76
2021/08/09 09:58:21;;;;;;;4.28;3.12;;;32.50;26.80;;;;;;4340426;32;20077;-77
2021/08/09 10:00:49;;;;;;;4.12;3.22;;;32.10;27.00;;;;;;4366762;32;20180;-78
2021/08/09 10:03:16;;;;;;;4.85;3.25;;;32.30;27.00;;;;;;4349015;32;20067;-75
2021/08/09 10:05:43;;;;;;;6.20;3.17;;;32.60;26.90;;;;;;4325718;32;20078;-73
2021/08/09 10:08:14;;;;;;;5.60;3.00;;;32.90;26.50;;;;;;4340795;32;20348;-76
2021/08/09 10:10:51;;;;;;;5.87;3.20;;;32.20;26.80;;;;;;4337149;32;20116;-73
2021/08/09 10:13:22;;;;;;;5.95;3.70;;;32.20;27.30;;;;;;4340537;32;20095;-75
2021/08/09 10:15:56;;;;;;;4.72;3.50;;;31.80;27.20;;;;;;4336988;32;20454;-77
2021/08/09 10:18:34;;;;;;;7.80;3.80;;;31.80;28.10;;;;;;4337365;32;20496;-79
2021/08/09 10:21:02;;;;;;;4.75;3.53;;;32.40;26.70;;;;;;4334660;32;20489;-74
2021/08/09 10:23:45;;;;;;;7.32;3.60;;;32.20;26.90;;;;;;4311251;32;20094;-74
2021/08/09 10:26:29;;;;;;;4.18;3.42;;;32.40;26.90;;;;;;4335406;32;20074;-76
2021/08/09 10:28:56;;;;;;;4.65;3.67;;;32.60;26.80;;;;;;4337412;32;20066;-74
2021/08/09 10:31:45;;;;;;;4.95;3.85;;;32.70;26.30;;;;;;4335408;32;20489;-76
2021/08/09 10:34:32;;;;;;;8.05;3.90;;;32.70;25.80;;;;;;4347990;32;20083;-77
2021/08/09 10:37:16;;;;;;;7.07;3.80;;;32.70;26.50;;;;;;4323075;32;20078;-77
2021/08/09 10:39:59;;;;;;;5.07;3.67;;;32.40;26.60;;;;;;4335813;32;20083;-75
2021/08/09 10:42:39;;;;;;;6.57;3.90;;;32.40;26.10;;;;;;4347710;32;20094;-76
2021/08/09 10:45:08;;;;;;;5.35;4.40;;;32.30;26.30;;;;;;4372857;32;20067;-77
2021/08/09 10:47:50;;;;;;;8.70;4.30;;;31.80;27.00;;;;;;4358078;32;20095;-78
2021/08/09 10:50:38;;;;;;;5.75;4.28;;;31.70;27.50;;;;;;4355107;32;20160;-74
2021/08/09 10:53:25;;;;;;;8.55;4.75;;;32.30;27.60;;;;;;4361852;32;20159;-76
2021/08/09 10:55:55;;;;;;;5.75;4.00;;;32.20;26.60;;;;;;4364520;32;20062;-75
2021/08/09 10:58:46;;;;;;;5.55;4.15;;;32.40;26.40;;;;;;4362285;32;20505;-77
2021/08/09 11:01:14;;;;;;;5.43;4.28;;;33.00;26.60;;;;;;4375999;32;20074;-76
2021/08/09 11:04:07;;;;;;;5.65;4.20;;;33.20;25.80;;;;;;4327301;32;20449;-78
2021/08/09 11:06:54;;;;;;;8.05;4.53;;;32.90;26.00;;;;;;4376073;32;20086;-76
2021/08/09 11:09:35;;;;;;;9.30;4.20;;;33.20;25.70;;;;;;4326409;32;20083;-74
2021/08/09 11:12:12;;;;;;;7.35;4.70;;;32.90;25.70;;;;;;4362312;32;20083;-77
2021/08/09 11:15:00;;;;;;;8.55;4.12;;;32.60;26.50;;;;;;4361837;32;20146;-77
2021/08/09 11:17:43;;;;;;;7.80;3.78;;;32.80;26.60;;;;;;4363391;32;20090;-76
2021/08/09 11:20:25;;;;;;;6.20;4.15;;;32.60;26.80;;;;;;4339055;32;20086;-76
2021/08/09 11:23:12;;;;;;;5.00;4.28;;;32.40;26.40;;;;;;4349978;32;20094;-76
2021/08/09 11:25:46;;;;;;;6.78;4.62;;;32.60;25.90;;;;;;4326057;32;20184;-76
2021/08/09 11:28:23;;;;;;;5.95;4.30;;;32.20;26.50;;;;;;4337860;32;20074;-76
2021/08/09 11:30:50;;;;;;;5.72;4.12;;;32.40;26.30;;;;;;4326482;32;20075;-77
2021/08/09 11:33:39;;;;;;;5.87;4.12;;;32.80;26.70;;;;;;4338061;32;20110;-77
2021/08/09 11:36:13;;;;;;;5.20;4.00;;;32.90;26.70;;;;;;4327053;32;20157;-77
2021/08/09 11:38:57;;;;;;;6.72;4.50;;;32.50;26.20;;;;;;4315848;32;20630;-75
2021/08/09 11:41:28;;;;;;;7.35;4.30;;;32.80;25.90;;;;;;4337821;32;20568;-76
2021/08/09 11:44:05;;;;;;;8.73;4.90;;;32.80;26.00;;;;;;4342305;32;20158;-75
2021/08/09 11:46:32;;;;;;;4.82;4.25;;;32.90;26.20;;;;;;4320905;32;20535;-75
2021/08/09 11:48:58;;;;;;;6.47;3.62;;;32.90;26.00;;;;;;4336393;32;20505;-78
2021/08/09 11:51:29;;;;;;;5.35;3.35;;;33.10;26.20;;;;;;4343568;32;20162;-78
2021/08/09 11:53:57;;;;;;;5.87;3.47;;;33.20;26.20;;;;;;4351497;32;20490;-77
2021/08/09 11:56:30;;;;;;;5.55;3.97;;;33.10;26.10;;;;;;4337760;32;20171;-77
2021/08/09 11:59:00;;;;;;;7.82;4.45;;;32.70;25.50;;;;;;4356169;32;20512;-77
2021/08/09 12:01:34;;;;;;;4.85;4.07;;;32.30;26.50;;;;;;4342109;32;20098;-72
2021/08/09 12:04:08;;;;;;;7.12;4.10;;;32.10;26.50;;;;;;4335141;32;20108;-73
2021/08/09 12:06:55;;;;;;;5.65;4.07;;;32.10;26.90;;;;;;4360036;32;20484;-78
2021/08/09 12:09:39;;;;;;;7.47;4.28;;;32.20;27.50;;;;;;4354265;32;20079;-74
2021/08/09 12:12:07;;;;;;;7.78;4.32;;;32.00;27.60;;;;;;4345518;32;20433;-76
2021/08/09 12:14:35;;;;;;;8.23;4.15;;;32.00;27.30;;;;;;4327222;32;20085;-74
2021/08/09 12:17:22;;;;;;;7.25;4.68;;;32.10;27.40;;;;;;4356787;32;20097;-76
2021/08/09 12:19:53;;;;;;;5.70;4.28;;;31.90;27.20;;;;;;4348049;32;20155;-73
2021/08/09 12:22:22;;;;;;;5.78;4.05;;;31.70;27.30;;;;;;4325216;32;20069;-75
2021/08/09 12:25:11;;;;;;;7.35;4.05;;;31.80;27.40;;;;;;4349241;32;20086;-79
2021/08/09 12:27:37;;;;;;;6.40;4.25;;;31.90;27.60;;;;;;4344596;32;20168;-79
2021/08/09 12:30:11;;;;;;;7.22;4.35;;;32.20;27.40;;;;;;4335965;32;20070;-74
2021/08/09 12:32:59;;;;;;;7.82;4.28;;;31.90;27.50;;;;;;4337306;32;20062;-76
2021/08/09 12:35:36;;;;;;;9.85;4.35;;;31.90;27.30;;;;;;4360112;32;20126;-70
2021/08/09 12:38:02;;;;;;;5.15;4.20;;;32.10;27.70;;;;;;4339089;32;20074;-73
2021/08/09 12:40:52;;;;;;;9.25;4.32;;;32.10;27.80;;;;;;4333804;32;20098;-72
2021/08/09 12:43:19;;;;;;;6.00;4.10;;;32.00;28.10;;;;;;4333386;32;20070;-75
2021/08/09 12:45:47;;;;;;;6.62;3.97;;;31.80;27.60;;;;;;4315838;32;20174;-74
2021/08/09 12:48:14;;;;;;;8.43;6.35;;;32.00;27.60;;;;;;4325176;32;20089;-73
2021/08/09 12:50:42;;;;;;;5.32;4.12;;;32.10;27.40;;;;;;4337795;32;20189;-73
2021/08/09 12:53:09;;;;;;;5.57;4.20;;;32.20;27.80;;;;;;4331001;32;20070;-72
2021/08/09 12:55:35;;;;;;;8.40;3.95;;;32.10;27.80;;;;;;4335507;32;20093;-71
2021/08/09 12:58:08;;;;;;;6.62;4.00;;;31.90;27.70;;;;;;4359719;32;20074;-74
2021/08/09 13:00:34;;;;;;;9.90;4.40;;;31.70;27.90;;;;;;4359855;32;20074;-73